createdAt,value
2019-05-03T00:01:02.591Z,53.70
2019-05-03T00:03:59.087Z,53.70
2019-05-03T00:06:56.331Z,53.80
2019-05-03T00:09:53.939Z,53.90
2019-05-03T00:12:50.343Z,53.80
2019-05-03T00:16:13.500Z,53.80
2019-05-03T00:19:10.503Z,53.90
2019-05-03T00:22:08.031Z,53.90
2019-05-03T00:25:08.115Z,54.00
2019-05-03T00:28:01.862Z,54.20
2019-05-03T00:30:59.600Z,54.20
2019-05-03T00:34:02.251Z,54.40
2019-05-03T00:37:01.822Z,54.40
2019-05-03T00:40:09.535Z,54.40
2019-05-03T00:43:05.731Z,54.40
2019-05-03T00:46:03.396Z,54.30
2019-05-03T00:49:00.287Z,54.50
2019-05-03T00:51:56.991Z,54.60
2019-05-03T00:54:57.008Z,54.80
2019-05-03T00:57:54.412Z,54.80
2019-05-03T01:00:54.103Z,54.80
2019-05-03T01:03:52.649Z,54.80
2019-05-03T01:06:48.179Z,54.80
2019-05-03T01:09:47.149Z,54.80
2019-05-03T01:12:46.386Z,54.80
2019-05-03T01:15:54.943Z,54.70
2019-05-03T01:18:52.337Z,54.60
2019-05-03T01:21:47.848Z,54.60
2019-05-03T01:24:43.274Z,54.60
2019-05-03T01:27:38.572Z,54.60
2019-05-03T01:30:33.711Z,54.60
2019-05-03T01:33:29.422Z,54.70
2019-05-03T01:36:25.554Z,54.80
2019-05-03T01:39:22.201Z,54.80
2019-05-03T01:42:19.513Z,54.80
2019-05-03T01:45:16.984Z,54.60
2019-05-03T01:48:32.207Z,54.50
2019-05-03T01:51:43.512Z,54.50
2019-05-03T01:54:42.587Z,54.30
2019-05-03T01:57:38.790Z,54.20
2019-05-03T02:00:35.122Z,54.40
2019-05-03T02:03:38.380Z,54.60
2019-05-03T02:06:34.777Z,54.70
2019-05-03T02:09:32.239Z,54.70
2019-05-03T02:12:28.507Z,54.60
2019-05-03T02:15:25.776Z,54.70
2019-05-03T02:18:22.876Z,54.60
2019-05-03T02:21:21.664Z,54.60
2019-05-03T02:24:18.824Z,54.50
2019-05-03T02:27:16.585Z,54.40
2019-05-03T02:30:14.477Z,54.00
2019-05-03T02:33:13.382Z,54.00
2019-05-03T02:36:08.696Z,54.00
2019-05-03T02:39:05.903Z,54.00
2019-05-03T02:42:10.857Z,54.10
2019-05-03T02:45:02.632Z,54.30
2019-05-03T02:48:07.595Z,54.30
2019-05-03T02:51:06.346Z,54.00
2019-05-03T02:53:59.785Z,53.50
2019-05-03T02:56:57.385Z,53.20
2019-05-03T02:59:54.963Z,53.30
2019-05-03T03:02:52.581Z,53.00
2019-05-03T03:05:48.931Z,52.80
2019-05-03T03:08:46.107Z,52.50
2019-05-03T03:11:45.795Z,52.00
2019-05-03T03:14:45.453Z,51.80
2019-05-03T03:17:45.565Z,51.70
2019-05-03T03:20:44.895Z,51.40
2019-05-03T03:23:46.092Z,51.10
2019-05-03T03:26:43.575Z,51.30
2019-05-03T03:29:39.960Z,51.10
2019-05-03T03:32:40.704Z,50.90
2019-05-03T03:35:38.109Z,50.50
2019-05-03T03:38:35.401Z,50.30
2019-05-03T03:41:32.122Z,50.20
2019-05-03T03:44:30.152Z,50.50
2019-05-03T03:47:27.699Z,50.50
2019-05-03T03:50:25.940Z,50.50
2019-05-03T03:53:22.569Z,50.50
2019-05-03T03:56:21.059Z,50.30
2019-05-03T03:59:19.978Z,50.20
2019-05-03T04:02:18.483Z,50.00
2019-05-03T04:05:17.015Z,49.70
2019-05-03T04:08:16.095Z,49.30
2019-05-03T04:11:11.895Z,49.20
2019-05-03T04:14:11.283Z,49.20
2019-05-03T04:17:19.538Z,49.30
2019-05-03T04:20:18.362Z,49.10
2019-05-03T04:23:17.509Z,49.30
2019-05-03T04:26:29.541Z,49.10
2019-05-03T04:29:20.846Z,48.90
2019-05-03T04:32:17.342Z,48.70
2019-05-03T04:35:12.957Z,48.50
2019-05-03T04:38:10.074Z,48.30
2019-05-03T04:41:05.954Z,48.30
2019-05-03T04:44:06.443Z,48.00
2019-05-03T04:47:06.328Z,47.90
2019-05-03T04:50:02.100Z,47.90
2019-05-03T04:52:59.526Z,48.00
2019-05-03T04:55:57.135Z,47.90
2019-05-03T04:58:55.844Z,47.90
2019-05-03T05:01:55.721Z,47.80
2019-05-03T05:04:49.787Z,47.60
2019-05-03T05:07:47.284Z,47.30
2019-05-03T05:10:45.474Z,47.10
2019-05-03T05:13:45.568Z,46.70
2019-05-03T05:16:42.494Z,46.60
2019-05-03T05:19:59.856Z,46.90
2019-05-03T05:23:00.764Z,46.80
2019-05-03T05:26:05.420Z,46.80
2019-05-03T05:29:05.351Z,46.50
2019-05-03T05:32:29.994Z,46.60
2019-05-03T05:35:32.562Z,46.40
2019-05-03T05:38:34.503Z,46.50
2019-05-03T05:41:45.034Z,46.40
2019-05-03T05:45:25.663Z,46.10
2019-05-03T05:48:45.125Z,46.10
2019-05-03T05:51:44.473Z,45.60
2019-05-03T05:54:46.974Z,45.50
2019-05-03T05:58:07.456Z,45.30
2019-05-03T06:01:20.007Z,45.10
2019-05-03T06:04:21.411Z,45.10
2019-05-03T06:07:51.809Z,45.30
2019-05-03T06:11:21.538Z,45.50
2019-05-03T06:14:34.660Z,45.30
2019-05-03T06:17:53.041Z,45.30
2019-05-03T06:21:10.153Z,45.20
2019-05-03T06:24:08.776Z,45.30
2019-05-03T06:27:34.855Z,45.40
2019-05-03T06:30:52.120Z,45.10
2019-05-03T06:33:52.495Z,45.10
2019-05-03T06:37:04.725Z,45.00
2019-05-03T06:40:06.781Z,45.10
2019-05-03T06:43:09.820Z,45.00
2019-05-03T06:46:05.188Z,44.80
2019-05-03T06:49:05.891Z,44.60
2019-05-03T06:51:59.086Z,44.50
2019-05-03T06:55:00.351Z,44.20
2019-05-03T06:57:54.571Z,43.90
2019-05-03T07:01:11.219Z,44.00
2019-05-03T07:04:35.097Z,44.00
2019-05-03T07:07:55.718Z,43.90
2019-05-03T07:10:56.375Z,43.90
2019-05-03T07:13:58.385Z,43.90
2019-05-03T07:16:55.396Z,43.70
2019-05-03T07:19:55.897Z,43.40
2019-05-03T07:22:55.532Z,43.70
2019-05-03T07:25:55.038Z,43.30
2019-05-03T07:28:54.544Z,43.00
2019-05-03T07:31:56.370Z,43.00
2019-05-03T07:35:04.414Z,42.70
2019-05-03T07:38:02.286Z,42.40
2019-05-03T07:41:02.662Z,42.60
2019-05-03T07:44:05.358Z,42.60
2019-05-03T07:47:07.083Z,42.50
2019-05-03T07:50:08.133Z,42.20
2019-05-03T07:53:04.795Z,42.00
2019-05-03T07:56:18.033Z,41.80
2019-05-03T07:59:16.329Z,41.80
2019-05-03T08:02:16.843Z,41.90
2019-05-03T08:05:15.531Z,41.80
2019-05-03T08:08:12.100Z,41.90
2019-05-03T08:11:14.404Z,41.80
2019-05-03T08:14:18.226Z,41.70
2019-05-03T08:17:15.227Z,41.40
2019-05-03T08:20:39.300Z,41.10
2019-05-03T08:24:00.073Z,41.00
2019-05-03T08:27:01.863Z,40.90
2019-05-03T08:30:00.235Z,40.10
2019-05-03T08:33:10.459Z,39.60
2019-05-03T08:36:07.218Z,39.70
2019-05-03T08:39:05.457Z,40.10
2019-05-03T08:42:07.156Z,39.90
2019-05-03T08:45:04.591Z,39.70
2019-05-03T08:48:00.630Z,39.60
2019-05-03T08:51:02.039Z,39.40
2019-05-03T08:53:59.494Z,38.90
2019-05-03T08:56:57.207Z,38.50
2019-05-03T08:59:54.941Z,38.40
2019-05-03T09:02:50.693Z,38.60
2019-05-03T09:05:47.271Z,38.40
2019-05-03T09:08:46.422Z,38.30
2019-05-03T09:11:45.376Z,38.00
2019-05-03T09:14:59.628Z,37.50
2019-05-03T09:18:26.828Z,37.10
2019-05-03T09:21:34.715Z,36.80
2019-05-03T09:24:36.362Z,36.10
2019-05-03T09:27:36.015Z,36.20
2019-05-03T09:30:35.825Z,36.10
2019-05-03T09:33:36.208Z,36.20
2019-05-03T09:40:45.389Z,36.60
2019-05-03T09:43:45.032Z,36.80
2019-05-03T09:46:54.797Z,36.70
2019-05-03T09:49:55.676Z,36.30
2019-05-03T09:52:56.804Z,35.90
2019-05-03T09:55:55.755Z,35.20
2019-05-03T09:58:55.791Z,34.50
2019-05-03T10:01:54.908Z,35.10
2019-05-03T10:04:52.145Z,34.70
2019-05-03T10:07:49.153Z,34.10
2019-05-03T10:11:05.266Z,33.60
2019-05-03T10:14:04.601Z,33.50
2019-05-03T10:17:25.297Z,33.50
2019-05-03T10:20:26.192Z,33.40
2019-05-03T10:23:54.830Z,33.60
2019-05-03T10:26:56.007Z,33.30
2019-05-03T10:30:09.097Z,32.80
2019-05-03T10:33:00.457Z,32.50
2019-05-03T10:36:02.927Z,32.70
2019-05-03T10:39:01.256Z,32.80
2019-05-03T10:42:02.154Z,32.90
2019-05-03T10:45:15.163Z,33.00
2019-05-03T10:48:10.516Z,33.50
2019-05-03T10:51:08.509Z,33.90
2019-05-03T10:54:05.553Z,33.70
2019-05-03T10:57:08.049Z,34.00
2019-05-03T11:00:07.928Z,34.10
2019-05-03T11:03:06.939Z,34.00
2019-05-03T11:06:05.517Z,34.00
2019-05-03T11:09:02.809Z,33.70
2019-05-03T11:12:01.710Z,33.70
2019-05-03T11:15:01.635Z,33.90
2019-05-03T11:18:00.288Z,33.80
2019-05-03T11:21:00.485Z,33.50
2019-05-03T11:23:59.964Z,33.70
2019-05-03T11:27:20.985Z,33.70
2019-05-03T11:30:24.839Z,33.70
2019-05-03T11:33:31.839Z,33.70
2019-05-03T11:36:57.852Z,34.00
2019-05-03T11:39:55.840Z,34.50
2019-05-03T11:42:52.181Z,34.60
2019-05-03T11:45:55.264Z,34.80
2019-05-03T11:48:54.840Z,35.10
2019-05-03T11:51:51.420Z,35.50
2019-05-03T11:54:47.508Z,35.90
2019-05-03T12:01:32.023Z,35.50
2019-05-03T12:04:31.283Z,35.20
2019-05-03T12:07:40.195Z,34.90
2019-05-03T12:55:48.457Z,47.90
2019-05-03T12:58:57.035Z,51.70
2019-05-03T13:02:10.659Z,53.20
2019-05-03T13:05:08.338Z,53.80
2019-05-03T13:08:42.373Z,53.40
2019-05-03T13:11:55.361Z,51.80
2019-05-03T13:14:59.778Z,50.70
2019-05-03T13:18:04.982Z,49.60
2019-05-03T13:21:05.806Z,49.20
2019-05-03T13:24:05.478Z,49.10
2019-05-03T13:27:09.573Z,49.00
2019-05-03T13:30:06.212Z,48.80
2019-05-03T13:33:07.078Z,48.90
2019-05-03T13:36:03.346Z,48.60
2019-05-03T13:39:11.376Z,48.60
2019-05-03T13:41:58.454Z,48.50
2019-05-03T13:44:55.993Z,48.40
2019-05-03T13:47:55.080Z,48.30
2019-05-03T13:50:50.086Z,48.40
2019-05-03T13:53:45.893Z,48.40
2019-05-03T13:56:42.693Z,48.10
2019-05-03T13:59:40.648Z,48.20
2019-05-03T14:02:40.383Z,48.20
2019-05-03T14:05:38.945Z,47.90
2019-05-03T14:08:36.714Z,47.80
2019-05-03T14:11:35.367Z,47.20
2019-05-03T14:14:45.344Z,46.90
2019-05-03T14:17:43.454Z,46.80
2019-05-03T14:20:52.429Z,46.60
2019-05-03T14:24:06.320Z,46.40
2019-05-03T14:27:06.760Z,46.20
2019-05-03T14:30:05.525Z,46.10
2019-05-03T14:33:05.097Z,46.50
2019-05-03T14:36:01.688Z,46.60
2019-05-03T14:39:05.135Z,46.50
2019-05-03T14:42:04.676Z,46.90
2019-05-03T14:45:01.896Z,46.80
2019-05-03T14:48:00.463Z,47.00
2019-05-03T14:50:57.976Z,47.00
2019-05-03T14:53:57.023Z,47.00
2019-05-03T14:57:10.405Z,47.20
2019-05-03T15:00:17.240Z,47.30
2019-05-03T15:03:16.763Z,47.10
2019-05-03T15:06:16.223Z,47.10
2019-05-03T15:09:16.921Z,47.00
2019-05-03T15:12:13.792Z,47.00
2019-05-03T15:15:15.697Z,47.10
2019-05-03T15:18:14.895Z,47.40
2019-05-03T15:21:11.441Z,47.50
2019-05-03T15:24:10.083Z,47.50
2019-05-03T15:27:07.529Z,47.50
2019-05-03T15:30:04.943Z,47.50
2019-05-03T15:33:01.942Z,47.80
2019-05-03T15:35:59.053Z,47.90
2019-05-03T15:38:55.219Z,48.10
2019-05-03T15:41:51.821Z,48.30
2019-05-03T15:44:59.503Z,48.60
2019-05-03T15:48:15.167Z,48.80
2019-05-03T15:51:11.954Z,48.80
2019-05-03T15:54:08.522Z,48.90
2019-05-03T15:57:07.176Z,48.70
2019-05-03T16:00:05.516Z,48.80
2019-05-03T16:03:10.571Z,48.70
2019-05-03T16:06:04.767Z,48.80
2019-05-03T16:09:00.303Z,49.10
2019-05-03T16:11:58.346Z,49.10
2019-05-03T16:14:55.303Z,49.10
2019-05-03T16:17:54.770Z,49.00
2019-05-03T16:20:50.893Z,48.80
2019-05-03T16:23:47.518Z,48.90
2019-05-03T16:27:00.641Z,48.80
2019-05-03T16:30:00.254Z,48.60
2019-05-03T16:32:58.878Z,48.30
2019-05-03T16:35:57.569Z,48.20
2019-05-03T16:38:55.885Z,48.30
2019-05-03T16:41:55.309Z,48.40
2019-05-03T16:44:55.007Z,48.30
2019-05-03T16:47:50.671Z,48.10
2019-05-03T16:50:47.533Z,47.90
2019-05-03T16:53:47.247Z,47.80
2019-05-03T16:56:45.175Z,48.00
2019-05-03T16:59:41.647Z,47.90
2019-05-03T17:02:37.220Z,47.80
2019-05-03T17:06:00.874Z,47.80
2019-05-03T17:09:14.616Z,47.90
2019-05-03T17:12:18.087Z,47.70
2019-05-03T17:15:15.425Z,47.70
2019-05-03T17:18:14.724Z,48.00
2019-05-03T17:21:14.568Z,48.30
2019-05-03T17:24:09.018Z,48.30
2019-05-03T17:27:04.243Z,48.40
2019-05-03T17:29:59.399Z,48.30
2019-05-03T17:32:56.028Z,48.20
2019-05-03T17:35:55.771Z,48.20
2019-05-03T17:38:55.125Z,48.30
2019-05-03T17:42:08.277Z,48.30
2019-05-03T17:45:05.422Z,48.40
2019-05-03T17:48:04.519Z,48.40
2019-05-03T17:51:04.312Z,48.10
2019-05-03T17:54:07.109Z,48.10
2019-05-03T17:57:12.826Z,47.80
2019-05-03T18:00:25.708Z,47.90
2019-05-03T18:03:25.892Z,47.90
2019-05-03T18:06:28.528Z,48.00
2019-05-03T18:09:30.596Z,47.40
2019-05-03T18:12:27.576Z,47.40
2019-05-03T18:15:25.043Z,47.50
2019-05-03T18:18:19.730Z,47.40
2019-05-03T18:21:15.253Z,47.20
2019-05-03T18:24:15.372Z,47.10
2019-05-03T18:27:10.320Z,47.00
2019-05-03T18:30:08.150Z,47.30
2019-05-03T18:33:06.041Z,47.20
2019-05-03T18:36:05.577Z,47.10
2019-05-03T18:39:02.981Z,47.20
2019-05-03T18:42:02.720Z,47.20
2019-05-03T18:45:05.276Z,47.30
2019-05-03T18:48:04.858Z,47.20
2019-05-03T18:51:00.821Z,47.40
2019-05-03T18:53:58.589Z,47.50
2019-05-03T18:56:55.838Z,47.70
2019-05-03T18:59:55.459Z,47.90
2019-05-03T19:02:51.626Z,47.80
2019-05-03T19:05:51.116Z,47.90
2019-05-03T19:09:14.925Z,47.90
2019-05-03T19:12:36.192Z,48.00
2019-05-03T19:15:35.119Z,48.10
2019-05-03T19:18:35.237Z,48.20
2019-05-03T19:21:35.037Z,48.30
2019-05-03T19:24:32.770Z,48.50
2019-05-03T19:27:30.400Z,48.60
2019-05-03T19:30:29.308Z,48.70
2019-05-03T19:33:27.291Z,49.00
2019-05-03T19:36:24.042Z,49.30
2019-05-03T19:39:22.863Z,49.40
2019-05-03T19:42:20.815Z,49.60
2019-05-03T19:45:20.431Z,49.80
2019-05-03T19:48:18.414Z,50.00
2019-05-03T19:51:16.297Z,50.20
2019-05-03T19:54:18.939Z,50.40
2019-05-03T19:57:19.624Z,50.70
2019-05-03T20:00:19.795Z,50.80
2019-05-03T20:03:21.872Z,50.90
2019-05-03T20:06:51.888Z,51.10
2019-05-03T20:09:51.371Z,51.20
2019-05-03T20:12:50.735Z,51.40
2019-05-03T20:15:51.146Z,51.50
2019-05-03T20:18:48.838Z,51.60
2019-05-03T20:21:46.684Z,51.90
2019-05-03T20:24:44.632Z,52.00
2019-05-03T20:27:44.379Z,52.00
2019-05-03T20:30:41.414Z,52.20
2019-05-03T20:33:40.130Z,52.10
2019-05-03T20:36:38.190Z,52.20
2019-05-03T20:39:35.787Z,52.20
2019-05-03T20:42:50.430Z,52.20
2019-05-03T20:46:05.077Z,52.20
2019-05-03T20:49:04.630Z,52.20
2019-05-03T20:52:02.397Z,52.30
2019-05-03T20:54:59.847Z,52.30
2019-05-03T20:57:58.122Z,52.40
2019-05-03T21:00:56.459Z,52.30
2019-05-03T21:03:54.356Z,52.40
2019-05-03T21:06:50.431Z,52.40
2019-05-03T21:09:46.896Z,52.40
2019-05-03T21:12:43.530Z,52.40
2019-05-03T21:15:45.575Z,52.60
2019-05-03T21:18:59.783Z,52.60
2019-05-03T21:22:05.501Z,52.70
2019-05-03T21:25:19.605Z,52.70
2019-05-03T21:28:16.285Z,52.80
2019-05-03T21:31:12.304Z,52.80
2019-05-03T21:34:08.305Z,52.70
2019-05-03T21:37:04.640Z,52.70
2019-05-03T21:40:00.604Z,52.70
2019-05-03T21:42:57.415Z,52.70
2019-05-03T21:45:59.001Z,52.70
2019-05-03T21:49:04.497Z,52.70
2019-05-03T21:52:01.083Z,52.70
2019-05-03T21:54:58.175Z,52.80
2019-05-03T21:57:55.303Z,52.80
2019-05-03T22:01:05.106Z,52.90
2019-05-03T22:04:01.379Z,52.90
2019-05-03T22:06:57.989Z,52.90
2019-05-03T22:09:54.470Z,52.90
2019-05-03T22:12:51.338Z,52.90
2019-05-03T22:15:57.779Z,52.90
2019-05-03T22:18:57.424Z,53.00
2019-05-03T22:22:12.483Z,52.40
2019-05-03T22:25:09.599Z,52.90
2019-05-03T22:28:07.255Z,52.90
2019-05-03T22:31:06.822Z,53.00
2019-05-03T22:34:04.596Z,53.80
2019-05-03T22:37:00.948Z,53.20
2019-05-03T22:39:58.201Z,53.20
2019-05-03T22:42:55.033Z,53.20
2019-05-03T22:45:51.682Z,53.20
2019-05-03T22:48:49.670Z,53.30
2019-05-03T22:51:47.480Z,53.30
2019-05-03T22:54:45.776Z,53.30
2019-05-03T22:57:44.179Z,53.40
2019-05-03T23:00:41.667Z,53.40
2019-05-03T23:03:46.672Z,53.40
2019-05-03T23:06:47.075Z,52.90
2019-05-03T23:09:44.665Z,53.20
2019-05-03T23:12:45.118Z,53.20
2019-05-03T23:15:42.202Z,53.30
2019-05-03T23:18:39.912Z,53.30
2019-05-03T23:21:57.670Z,53.30
2019-05-03T23:24:54.915Z,53.30
2019-05-03T23:27:55.013Z,53.30
2019-05-03T23:30:51.083Z,53.40
2019-05-03T23:33:47.132Z,53.40
2019-05-03T23:36:43.102Z,53.50
2019-05-03T23:39:39.486Z,53.50
2019-05-03T23:42:35.640Z,53.60
2019-05-03T23:45:31.432Z,53.50
2019-05-03T23:48:27.477Z,53.40
2019-05-03T23:51:40.219Z,53.50
2019-05-03T23:54:37.649Z,53.50
2019-05-03T23:57:35.681Z,53.50
